Naoussa — SVA5552 — position and weather

sailwx.info

Track history (hours):
 
Tides and Currents Weather Stations Pressure Air Temp Water Temp Dewpoint Dewpoint Depression Visibility Wind Speed Wind Dir Waves Ship Positions

Naoussa

Last reported at 2018-Jul-18 10:30 UTC. Time now 2018-Jul-19 22:56 UTC.
Position N 37°39' E 023°43'.

Length 78 m; draft 4.8 m.

Type: Ship (hazmat cat A). MMSI: 241216000.

Date/timePositionNaut miles runAvg speedWind from/ knotsBaromVisibWave heightAir tempDewpointWater temp
2018-Jul-18 10:30N 37°39' E 023°43'510.3
2018-Jul-18 10:00N 37°44' E 023°40'510.5
2018-Jul-18 09:30N 37°48' E 023°37'510.3
2018-Jul-18 09:00N 37°53' E 023°36'4 8.2
2018-Jul-18 08:30N 37°57' E 023°34'5 9.1
2018-Jul-18 08:00N 38°01' E 023°32'1 1.0
2018-Jul-18 07:30N 38°02' E 023°32'0 0.0
2018-Jul-18 07:00N 38°02' E 023°32'0 0.0
2018-Jul-18 06:30N 38°02' E 023°32'0 0.0
2018-Jul-18 06:00N 38°02' E 023°32'0 0.0
2018-Jul-18 05:24N 38°02' E 023°32'0 0.0
2018-Jul-18 05:00N 38°02' E 023°32'0 0.0
2018-Jul-18 04:30N 38°02' E 023°32'0 0.0
2018-Jul-18 04:00N 38°02' E 023°32'0 0.0
2018-Jul-18 03:27N 38°02' E 023°32'0 0.0
2018-Jul-18 03:00N 38°02' E 023°32'0 0.0
2018-Jul-18 02:30N 38°02' E 023°32'0 0.0
2018-Jul-18 02:00N 38°02' E 023°32'0 0.0
2018-Jul-18 01:30N 38°02' E 023°32'0 0.0
2018-Jul-18 01:00N 38°02' E 023°32'0 0.0
2018-Jul-18 00:27N 38°02' E 023°32'0 0.0
2018-Jul-17 23:57N 38°02' E 023°32'0 0.1
2018-Jul-17 23:30N 38°02' E 023°32'0 0.0
2018-Jul-17 23:00N 38°02' E 023°32'0 0.1
2018-Jul-17 22:30N 38°02' E 023°32'0 0.0
2018-Jul-17 22:00N 38°02' E 023°32'0 0.0
2018-Jul-17 21:30N 38°02' E 023°32'0 0.1
2018-Jul-17 21:00N 38°02' E 023°32'0 0.0
2018-Jul-17 20:30N 38°02' E 023°32'0 0.3
2018-Jul-17 19:57N 38°02' E 023°31'0 0.1
2018-Jul-17 19:30N 38°02' E 023°31'1 1.3
2018-Jul-17 19:00N 38°02' E 023°31'0 0.1
2018-Jul-17 18:30N 38°02' E 023°31'0 0.0
2018-Jul-17 18:00N 38°02' E 023°31'0 0.0
2018-Jul-17 17:30N 38°02' E 023°31'0 0.0
2018-Jul-17 17:00N 38°02' E 023°31'0 0.0
2018-Jul-17 16:30N 38°02' E 023°31'0 0.0
2018-Jul-17 16:00N 38°02' E 023°31'0 0.0
2018-Jul-17 15:30N 38°02' E 023°31'0 0.0
2018-Jul-17 15:00N 38°02' E 023°31'0 0.0
2018-Jul-17 14:30N 38°02' E 023°31'0 0.0
2018-Jul-17 14:00N 38°02' E 023°31'0 0.0
2018-Jul-17 13:30N 38°02' E 023°31'0 0.0
2018-Jul-17 13:00N 38°02' E 023°31'0 0.0
2018-Jul-17 12:30N 38°02' E 023°31'0 0.0
2018-Jul-17 12:00N 38°02' E 023°31'0 0.0
2018-Jul-17 11:30N 38°02' E 023°31'0 0.0
2018-Jul-17 11:00N 38°02' E 023°31'0 0.0
2018-Jul-17 10:30N 38°02' E 023°31'0 0.0
2018-Jul-17 10:00N 38°02' E 023°31'0 0.0
2018-Jul-17 09:30N 38°02' E 023°31'0 0.0
2018-Jul-17 09:00N 38°02' E 023°31'1 1.0
2018-Jul-17 08:31N 38°02' E 023°31'1 1.1
2018-Jul-17 08:01N 38°02' E 023°32'0 0.1
2018-Jul-17 07:30N 38°02' E 023°32'0 0.1
2018-Jul-17 07:00N 38°02' E 023°32'3 5.3
2018-Jul-17 06:30N 37°59' E 023°33'4 8.6
2018-Jul-17 06:01N 37°56' E 023°36'1 2.1
2018-Jul-17 05:31N 37°55' E 023°36'0 0.5
2018-Jul-17 05:00N 37°54' E 023°36'0 0.6
2018-Jul-17 04:31N 37°55' E 023°36'1 2.8
2018-Jul-17 04:01N 37°53' E 023°37'4 8.0
2018-Jul-17 03:31N 37°50' E 023°40'4 8.2
2018-Jul-17 03:00N 37°46' E 023°42'4 8.2
2018-Jul-17 02:30N 37°43' E 023°44'4 8.4
2018-Jul-17 02:00N 37°40' E 023°48'5 9.2
2018-Jul-17 01:30N 37°38' E 023°53'5 9.1
2018-Jul-17 01:01N 37°38' E 023°59'5 9.5
2018-Jul-17 00:31N 37°38' E 024°05'122 6.1
2018-Jul-16 04:19N 39°33' E 024°58'8 5.9
2018-Jul-16 02:58N 39°25' E 024°54'5 7.3
2018-Jul-16 02:19N 39°21' E 024°53'8 7.4
2018-Jul-16 01:11N 39°12' E 024°52'93 7.9
2018-Jul-15 13:27N 37°40' E 024°47'4 8.7
2018-Jul-15 13:00N 37°36' E 024°48'5 9.2
2018-Jul-15 12:30N 37°31' E 024°46'5 9.5
2018-Jul-15 12:00N 37°27' E 024°45'  
2018-Jul-09 11:33N 37°31' E 023°50'510.0
2018-Jul-09 11:02N 37°35' E 023°47'110.0
2018-Jul-09 10:55N 37°36' E 023°46'2 4.2
2018-Jul-09 10:30N 37°38' E 023°44'1 2.8
2018-Jul-09 09:58N 37°39' E 023°43'4 9.6
2018-Jul-09 09:30N 37°42' E 023°40'5 9.8
2018-Jul-09 09:00N 37°47' E 023°38'5 9.7
2018-Jul-09 08:30N 37°52' E 023°36'510.0
2018-Jul-09 08:00N 37°57' E 023°36'4 7.8
2018-Jul-09 07:30N 37°60' E 023°33'3 5.1
2018-Jul-09 07:00N 38°02' E 023°31'0 0.2
2018-Jul-09 06:30N 38°02' E 023°31'0 0.0
2018-Jul-09 06:00N 38°02' E 023°31'0 0.0
2018-Jul-09 05:30N 38°02' E 023°31'0 0.0
2018-Jul-09 05:00N 38°02' E 023°31'0 0.0
2018-Jul-09 04:30N 38°02' E 023°31'0 0.0
2018-Jul-09 04:00N 38°02' E 023°31'0 0.0
2018-Jul-09 03:30N 38°02' E 023°31'0 0.0
2018-Jul-09 03:00N 38°02' E 023°31'0 0.0
2018-Jul-09 02:30N 38°02' E 023°31'0 0.0
2018-Jul-09 02:00N 38°02' E 023°31'0 0.0
2018-Jul-09 01:30N 38°02' E 023°31'0 0.0
2018-Jul-09 01:00N 38°02' E 023°31'0 0.0
2018-Jul-09 00:30N 38°02' E 023°31'0 0.0
2018-Jul-09 00:00N 38°02' E 023°31'0 0.0
2018-Jul-08 23:30N 38°02' E 023°31'0 0.0
2018-Jul-08 23:00N 38°02' E 023°31'0 0.0
2018-Jul-08 22:30N 38°02' E 023°31'0 0.0
2018-Jul-08 21:54N 38°02' E 023°31'0 0.1
2018-Jul-08 21:30N 38°02' E 023°31'0 0.1
2018-Jul-08 21:00N 38°02' E 023°31'1 1.3
2018-Jul-08 20:30N 38°02' E 023°31'0 0.0
2018-Jul-08 20:00N 38°02' E 023°31'0 0.0
2018-Jul-08 19:30N 38°02' E 023°31'0 0.0
2018-Jul-08 19:00N 38°02' E 023°31'0 0.0
2018-Jul-08 18:30N 38°02' E 023°31'0 0.0
2018-Jul-08 18:00N 38°02' E 023°31'0 0.0
2018-Jul-08 17:30N 38°02' E 023°31'0 0.0
2018-Jul-08 17:00N 38°02' E 023°31'0 0.0
2018-Jul-08 16:30N 38°02' E 023°31'0 0.0
2018-Jul-08 16:00N 38°02' E 023°31'0 0.0
2018-Jul-08 15:30N 38°02' E 023°31'0 0.0
2018-Jul-08 15:00N 38°02' E 023°31'0 0.0
2018-Jul-08 14:30N 38°02' E 023°31'0 0.0
2018-Jul-08 14:00N 38°02' E 023°31'0 0.0
2018-Jul-08 13:30N 38°02' E 023°31'0 0.0
2018-Jul-08 12:57N 38°02' E 023°31'0 0.0
2018-Jul-08 12:30N 38°02' E 023°31'0 0.0
2018-Jul-08 12:00N 38°02' E 023°31'0 0.0
2018-Jul-08 11:30N 38°02' E 023°31'0 0.0
2018-Jul-08 11:00N 38°02' E 023°31'0 0.0
2018-Jul-08 10:30N 38°02' E 023°31'  
Track history (hours):
 
Tides and Currents Weather Stations Pressure Air Temp Water Temp Dewpoint Dewpoint Depression Visibility Wind Speed Wind Dir Waves Ship Positions

Naoussa

Last reported at 2018-Jul-18 10:30 UTC. Time now 2018-Jul-19 22:56 UTC.
Position N 37°39' E 023°43'.

Length 78 m; draft 4.8 m.

Type: Ship (hazmat cat A). MMSI: 241216000.

Date/timePositionNaut miles runAvg speedWind from/ knotsBaromVisibWave heightAir tempDewpointWater temp
2018-Jul-18 10:30N 37°39' E 023°43'510.3
2018-Jul-18 10:00N 37°44' E 023°40'510.5
2018-Jul-18 09:30N 37°48' E 023°37'510.3
2018-Jul-18 09:00N 37°53' E 023°36'4 8.2
2018-Jul-18 08:30N 37°57' E 023°34'5 9.1
2018-Jul-18 08:00N 38°01' E 023°32'1 1.0
2018-Jul-18 07:30N 38°02' E 023°32'0 0.0
2018-Jul-18 07:00N 38°02' E 023°32'0 0.0
2018-Jul-18 06:30N 38°02' E 023°32'0 0.0
2018-Jul-18 06:00N 38°02' E 023°32'0 0.0
2018-Jul-18 05:24N 38°02' E 023°32'0 0.0
2018-Jul-18 05:00N 38°02' E 023°32'0 0.0
2018-Jul-18 04:30N 38°02' E 023°32'0 0.0
2018-Jul-18 04:00N 38°02' E 023°32'0 0.0
2018-Jul-18 03:27N 38°02' E 023°32'0 0.0
2018-Jul-18 03:00N 38°02' E 023°32'0 0.0
2018-Jul-18 02:30N 38°02' E 023°32'0 0.0
2018-Jul-18 02:00N 38°02' E 023°32'0 0.0
2018-Jul-18 01:30N 38°02' E 023°32'0 0.0
2018-Jul-18 01:00N 38°02' E 023°32'0 0.0
2018-Jul-18 00:27N 38°02' E 023°32'0 0.0
2018-Jul-17 23:57N 38°02' E 023°32'0 0.1
2018-Jul-17 23:30N 38°02' E 023°32'0 0.0
2018-Jul-17 23:00N 38°02' E 023°32'0 0.1
2018-Jul-17 22:30N 38°02' E 023°32'0 0.0
2018-Jul-17 22:00N 38°02' E 023°32'0 0.0
2018-Jul-17 21:30N 38°02' E 023°32'0 0.1
2018-Jul-17 21:00N 38°02' E 023°32'0 0.0
2018-Jul-17 20:30N 38°02' E 023°32'0 0.3
2018-Jul-17 19:57N 38°02' E 023°31'0 0.1
2018-Jul-17 19:30N 38°02' E 023°31'1 1.3
2018-Jul-17 19:00N 38°02' E 023°31'0 0.1
2018-Jul-17 18:30N 38°02' E 023°31'0 0.0
2018-Jul-17 18:00N 38°02' E 023°31'0 0.0
2018-Jul-17 17:30N 38°02' E 023°31'0 0.0
2018-Jul-17 17:00N 38°02' E 023°31'0 0.0
2018-Jul-17 16:30N 38°02' E 023°31'0 0.0
2018-Jul-17 16:00N 38°02' E 023°31'0 0.0
2018-Jul-17 15:30N 38°02' E 023°31'0 0.0
2018-Jul-17 15:00N 38°02' E 023°31'0 0.0
2018-Jul-17 14:30N 38°02' E 023°31'0 0.0
2018-Jul-17 14:00N 38°02' E 023°31'0 0.0
2018-Jul-17 13:30N 38°02' E 023°31'0 0.0
2018-Jul-17 13:00N 38°02' E 023°31'0 0.0
2018-Jul-17 12:30N 38°02' E 023°31'0 0.0
2018-Jul-17 12:00N 38°02' E 023°31'0 0.0
2018-Jul-17 11:30N 38°02' E 023°31'0 0.0
2018-Jul-17 11:00N 38°02' E 023°31'0 0.0
2018-Jul-17 10:30N 38°02' E 023°31'0 0.0
2018-Jul-17 10:00N 38°02' E 023°31'0 0.0
2018-Jul-17 09:30N 38°02' E 023°31'0 0.0
2018-Jul-17 09:00N 38°02' E 023°31'1 1.0
2018-Jul-17 08:31N 38°02' E 023°31'1 1.1
2018-Jul-17 08:01N 38°02' E 023°32'0 0.1
2018-Jul-17 07:30N 38°02' E 023°32'0 0.1
2018-Jul-17 07:00N 38°02' E 023°32'3 5.3
2018-Jul-17 06:30N 37°59' E 023°33'4 8.6
2018-Jul-17 06:01N 37°56' E 023°36'1 2.1
2018-Jul-17 05:31N 37°55' E 023°36'0 0.5
2018-Jul-17 05:00N 37°54' E 023°36'0 0.6
2018-Jul-17 04:31N 37°55' E 023°36'1 2.8
2018-Jul-17 04:01N 37°53' E 023°37'4 8.0
2018-Jul-17 03:31N 37°50' E 023°40'4 8.2
2018-Jul-17 03:00N 37°46' E 023°42'4 8.2
2018-Jul-17 02:30N 37°43' E 023°44'4 8.4
2018-Jul-17 02:00N 37°40' E 023°48'5 9.2
2018-Jul-17 01:30N 37°38' E 023°53'5 9.1
2018-Jul-17 01:01N 37°38' E 023°59'5 9.5
2018-Jul-17 00:31N 37°38' E 024°05'122 6.1
2018-Jul-16 04:19N 39°33' E 024°58'8 5.9
2018-Jul-16 02:58N 39°25' E 024°54'5 7.3
2018-Jul-16 02:19N 39°21' E 024°53'8 7.4
2018-Jul-16 01:11N 39°12' E 024°52'93 7.9
2018-Jul-15 13:27N 37°40' E 024°47'4 8.7
2018-Jul-15 13:00N 37°36' E 024°48'5 9.2
2018-Jul-15 12:30N 37°31' E 024°46'5 9.5
2018-Jul-15 12:00N 37°27' E 024°45'  
2018-Jul-09 11:33N 37°31' E 023°50'510.0
2018-Jul-09 11:02N 37°35' E 023°47'110.0
2018-Jul-09 10:55N 37°36' E 023°46'2 4.2
2018-Jul-09 10:30N 37°38' E 023°44'1 2.8
2018-Jul-09 09:58N 37°39' E 023°43'4 9.6
2018-Jul-09 09:30N 37°42' E 023°40'5 9.8
2018-Jul-09 09:00N 37°47' E 023°38'5 9.7
2018-Jul-09 08:30N 37°52' E 023°36'510.0
2018-Jul-09 08:00N 37°57' E 023°36'4 7.8
2018-Jul-09 07:30N 37°60' E 023°33'3 5.1
2018-Jul-09 07:00N 38°02' E 023°31'0 0.2
2018-Jul-09 06:30N 38°02' E 023°31'0 0.0
2018-Jul-09 06:00N 38°02' E 023°31'0 0.0
2018-Jul-09 05:30N 38°02' E 023°31'0 0.0
2018-Jul-09 05:00N 38°02' E 023°31'0 0.0
2018-Jul-09 04:30N 38°02' E 023°31'0 0.0
2018-Jul-09 04:00N 38°02' E 023°31'0 0.0
2018-Jul-09 03:30N 38°02' E 023°31'0 0.0
2018-Jul-09 03:00N 38°02' E 023°31'0 0.0
2018-Jul-09 02:30N 38°02' E 023°31'0 0.0
2018-Jul-09 02:00N 38°02' E 023°31'0 0.0
2018-Jul-09 01:30N 38°02' E 023°31'0 0.0
2018-Jul-09 01:00N 38°02' E 023°31'0 0.0
2018-Jul-09 00:30N 38°02' E 023°31'0 0.0
2018-Jul-09 00:00N 38°02' E 023°31'0 0.0
2018-Jul-08 23:30N 38°02' E 023°31'0 0.0
2018-Jul-08 23:00N 38°02' E 023°31'0 0.0
2018-Jul-08 22:30N 38°02' E 023°31'0 0.0
2018-Jul-08 21:54N 38°02' E 023°31'0 0.1
2018-Jul-08 21:30N 38°02' E 023°31'0 0.1
2018-Jul-08 21:00N 38°02' E 023°31'1 1.3
2018-Jul-08 20:30N 38°02' E 023°31'0 0.0
2018-Jul-08 20:00N 38°02' E 023°31'0 0.0
2018-Jul-08 19:30N 38°02' E 023°31'0 0.0
2018-Jul-08 19:00N 38°02' E 023°31'0 0.0
2018-Jul-08 18:30N 38°02' E 023°31'0 0.0
2018-Jul-08 18:00N 38°02' E 023°31'0 0.0
2018-Jul-08 17:30N 38°02' E 023°31'0 0.0
2018-Jul-08 17:00N 38°02' E 023°31'0 0.0
2018-Jul-08 16:30N 38°02' E 023°31'0 0.0
2018-Jul-08 16:00N 38°02' E 023°31'0 0.0
2018-Jul-08 15:30N 38°02' E 023°31'0 0.0
2018-Jul-08 15:00N 38°02' E 023°31'0 0.0
2018-Jul-08 14:30N 38°02' E 023°31'0 0.0
2018-Jul-08 14:00N 38°02' E 023°31'0 0.0
2018-Jul-08 13:30N 38°02' E 023°31'0 0.0
2018-Jul-08 12:57N 38°02' E 023°31'0 0.0
2018-Jul-08 12:30N 38°02' E 023°31'0 0.0
2018-Jul-08 12:00N 38°02' E 023°31'0 0.0
2018-Jul-08 11:30N 38°02' E 023°31'0 0.0
2018-Jul-08 11:00N 38°02' E 023°31'0 0.0
2018-Jul-08 10:30N 38°02' E 023°31'  

Dump ship's entire track history